createdAt,value
2018-08-19T00:00:28.763Z,19.94
2018-08-19T00:02:59.487Z,19.91
2018-08-19T00:05:27.091Z,19.87
2018-08-19T00:07:54.695Z,19.83
2018-08-19T00:10:45.421Z,19.79
2018-08-19T00:13:12.984Z,19.84
2018-08-19T00:15:40.942Z,19.83
2018-08-19T00:18:10.134Z,19.86
2018-08-19T00:20:37.759Z,19.87
2018-08-19T00:23:05.666Z,19.81
2018-08-19T00:25:35.995Z,19.87
2018-08-19T00:28:04.187Z,19.84
2018-08-19T00:30:31.998Z,19.80
2018-08-19T00:33:00.789Z,19.86
2018-08-19T00:35:29.714Z,19.88
2018-08-19T00:37:57.650Z,19.81
2018-08-19T00:40:25.175Z,19.79
2018-08-19T00:42:52.790Z,19.82
2018-08-19T00:45:20.372Z,19.73
2018-08-19T00:47:49.302Z,19.60
2018-08-19T00:50:17.567Z,19.54
2018-08-19T00:52:45.119Z,19.54
2018-08-19T00:55:12.735Z,19.48
2018-08-19T00:57:43.293Z,19.50
2018-08-19T01:00:10.823Z,19.51
2018-08-19T01:02:38.399Z,19.55
2018-08-19T01:05:06.019Z,19.73
2018-08-19T01:07:34.897Z,19.64
2018-08-19T01:10:02.753Z,19.58
2018-08-19T01:12:30.319Z,19.56
2018-08-19T01:14:57.891Z,19.53
2018-08-19T01:17:31.904Z,19.54
2018-08-19T01:20:02.743Z,19.53
2018-08-19T01:22:32.082Z,19.49
2018-08-19T01:24:59.638Z,19.48
2018-08-19T01:27:27.228Z,19.47
2018-08-19T01:29:54.768Z,19.57
2018-08-19T01:32:22.333Z,19.53
2018-08-19T01:34:49.866Z,19.52
2018-08-19T01:37:18.082Z,19.49
2018-08-19T01:39:45.711Z,19.55
2018-08-19T01:42:13.277Z,19.51
2018-08-19T01:44:42.835Z,19.50
2018-08-19T01:47:10.350Z,19.56
2018-08-19T01:49:37.914Z,19.56
2018-08-19T01:52:05.513Z,19.50
2018-08-19T01:54:33.034Z,19.55
2018-08-19T01:57:01.519Z,19.53
2018-08-19T01:59:30.649Z,19.50
2018-08-19T02:01:59.579Z,19.47
2018-08-19T02:04:27.177Z,19.50
2018-08-19T02:06:54.749Z,19.42
2018-08-19T02:09:22.478Z,19.41
2018-08-19T02:11:53.374Z,19.39
2018-08-19T02:14:21.655Z,19.38
2018-08-19T02:16:49.895Z,19.38
2018-08-19T02:19:17.456Z,19.39
2018-08-19T02:21:45.739Z,19.31
2018-08-19T02:24:13.715Z,19.33
2018-08-19T02:26:41.301Z,19.28
2018-08-19T02:29:20.223Z,19.25
2018-08-19T02:31:47.753Z,19.19
2018-08-19T02:34:18.247Z,19.18
2018-08-19T02:36:45.824Z,19.13
2018-08-19T02:39:13.359Z,19.05
2018-08-19T02:41:45.247Z,19.08
2018-08-19T02:44:13.918Z,19.22
2018-08-19T02:46:41.464Z,19.16
2018-08-19T02:49:09.002Z,19.12
2018-08-19T02:51:36.556Z,19.09
2018-08-19T02:54:04.127Z,19.03
2018-08-19T02:56:32.226Z,19.01
2018-08-19T02:58:59.754Z,18.92
2018-08-19T03:01:27.290Z,18.84
2018-08-19T03:03:55.161Z,18.80
2018-08-19T03:06:22.706Z,18.79
2018-08-19T03:08:55.592Z,18.74
2018-08-19T03:11:23.130Z,18.74
2018-08-19T03:13:50.646Z,18.68
2018-08-19T03:16:18.192Z,18.64
2018-08-19T03:18:46.503Z,18.61
2018-08-19T03:21:14.023Z,18.50
2018-08-19T03:23:41.563Z,18.48
2018-08-19T03:26:09.086Z,18.45
2018-08-19T03:28:37.658Z,18.43
2018-08-19T03:31:05.294Z,18.34
2018-08-19T03:33:32.819Z,18.38
2018-08-19T03:36:00.365Z,18.32
2018-08-19T03:38:27.930Z,18.30
2018-08-19T03:40:56.423Z,18.29
2018-08-19T03:43:24.199Z,18.27
2018-08-19T03:45:51.774Z,18.22
2018-08-19T03:48:19.293Z,18.06
2018-08-19T03:50:46.826Z,18.10
2018-08-19T03:53:14.353Z,18.25
2018-08-19T03:55:41.952Z,18.11
2018-08-19T03:58:10.341Z,18.14
2018-08-19T04:00:40.489Z,17.99
2018-08-19T04:03:20.539Z,17.95
2018-08-19T04:05:50.737Z,18.03
2018-08-19T04:08:18.284Z,17.92
2018-08-19T04:10:46.634Z,17.98
2018-08-19T04:13:24.907Z,17.92
2018-08-19T04:15:53.613Z,17.90
2018-08-19T04:18:25.998Z,17.73
2018-08-19T04:20:53.594Z,17.66
2018-08-19T04:23:21.179Z,17.62
2018-08-19T04:25:49.293Z,17.61
2018-08-19T04:28:21.297Z,17.62
2018-08-19T04:30:49.860Z,17.67
2018-08-19T04:33:18.663Z,17.72
2018-08-19T04:35:46.185Z,17.68
2018-08-19T04:38:13.733Z,17.55
2018-08-19T04:40:41.290Z,17.50
2018-08-19T04:43:08.810Z,17.55
2018-08-19T04:45:36.351Z,17.49
2018-08-19T04:48:03.934Z,17.52
2018-08-19T04:50:32.673Z,17.53
2018-08-19T04:53:00.350Z,17.53
2018-08-19T04:55:28.082Z,17.90
2018-08-19T04:57:55.637Z,17.80
2018-08-19T05:00:23.229Z,18.06
2018-08-19T05:02:50.746Z,17.92
2018-08-19T05:05:18.299Z,17.95
2018-08-19T05:07:45.846Z,17.94
2018-08-19T05:10:13.381Z,18.13
2018-08-19T05:12:41.682Z,18.19
2018-08-19T05:15:09.186Z,18.22
2018-08-19T05:17:37.130Z,18.20
2018-08-19T05:20:10.710Z,18.58
2018-08-19T05:22:38.334Z,18.66
2018-08-19T05:25:05.820Z,18.65
2018-08-19T05:27:33.352Z,18.78
2018-08-19T05:30:00.899Z,18.79
2018-08-19T05:32:28.410Z,18.84
2018-08-19T05:34:55.950Z,18.82
2018-08-19T05:37:23.471Z,19.00
2018-08-19T05:39:56.559Z,19.01
2018-08-19T05:42:24.970Z,19.12
2018-08-19T05:44:52.650Z,19.24
2018-08-19T05:47:20.182Z,19.46
2018-08-19T05:49:49.298Z,19.74
2018-08-19T05:52:22.325Z,19.83
2018-08-19T05:54:53.418Z,19.72
2018-08-19T05:57:21.904Z,19.64
2018-08-19T05:59:51.350Z,19.80
2018-08-19T06:02:28.989Z,20.01
2018-08-19T06:04:56.588Z,20.24
2018-08-19T06:07:24.127Z,20.28
2018-08-19T06:09:51.670Z,20.44
2018-08-19T06:12:19.226Z,20.74
2018-08-19T06:14:47.130Z,20.89
2018-08-19T06:17:14.682Z,21.10
2018-08-19T06:19:42.239Z,21.27
2018-08-19T06:22:10.107Z,21.34
2018-08-19T06:24:38.565Z,21.18
2018-08-19T06:27:06.109Z,21.40
2018-08-19T06:29:44.565Z,21.67
2018-08-19T06:32:15.942Z,21.99
2018-08-19T06:34:43.519Z,22.16
2018-08-19T06:37:11.234Z,22.04
2018-08-19T06:39:38.742Z,22.26
2018-08-19T06:42:06.646Z,22.31
2018-08-19T06:44:34.190Z,22.53
2018-08-19T06:47:01.849Z,22.54
2018-08-19T06:49:30.223Z,23.12
2018-08-19T06:51:57.784Z,23.24
2018-08-19T06:54:25.339Z,23.33
2018-08-19T06:56:54.504Z,23.86
2018-08-19T06:59:22.951Z,24.17
2018-08-19T07:01:50.511Z,24.58
2018-08-19T07:04:18.088Z,25.02
2018-08-19T07:06:45.630Z,25.61
2018-08-19T07:09:13.501Z,25.52
2018-08-19T07:11:47.543Z,25.96
2018-08-19T07:14:15.107Z,26.51
2018-08-19T07:16:42.667Z,26.90
2018-08-19T07:19:10.801Z,27.20
2018-08-19T07:21:38.395Z,27.83
2018-08-19T07:24:06.032Z,27.81
2018-08-19T07:26:33.655Z,28.04
2018-08-19T07:29:01.222Z,28.45
2018-08-19T07:31:28.976Z,28.71
2018-08-19T07:33:56.542Z,28.90
2018-08-19T07:36:24.126Z,29.19
2018-08-19T07:38:51.705Z,29.14
2018-08-19T07:41:19.269Z,29.36
2018-08-19T07:43:46.917Z,29.84
2018-08-19T07:46:14.394Z,30.02
2018-08-19T07:48:42.590Z,30.25
2018-08-19T07:51:10.137Z,30.18
2018-08-19T07:53:37.710Z,30.17
2018-08-19T07:56:05.236Z,30.55
2018-08-19T07:58:38.987Z,30.61
2018-08-19T08:01:06.551Z,30.92
2018-08-19T08:03:34.102Z,30.83
2018-08-19T08:06:01.653Z,31.71
2018-08-19T08:08:29.205Z,31.72
2018-08-19T08:10:56.853Z,31.97
2018-08-19T08:13:24.330Z,32.46
2018-08-19T08:15:54.265Z,32.61
2018-08-19T08:18:21.831Z,32.32
2018-08-19T08:20:50.529Z,32.84
2018-08-19T08:23:18.979Z,33.59
2018-08-19T08:25:46.693Z,33.68
2018-08-19T08:28:14.286Z,33.53
2018-08-19T08:30:41.820Z,33.00
2018-08-19T08:33:09.642Z,33.86
2018-08-19T08:35:41.690Z,33.59
2018-08-19T08:38:11.153Z,34.02
2018-08-19T08:40:39.136Z,34.42
2018-08-19T08:43:07.482Z,33.75
2018-08-19T08:45:39.030Z,33.91
2018-08-19T08:48:07.081Z,33.35
2018-08-19T08:50:34.667Z,33.05
2018-08-19T08:53:02.264Z,33.31
2018-08-19T08:55:30.064Z,33.90
2018-08-19T08:57:57.631Z,33.83
2018-08-19T09:00:25.212Z,33.81
2018-08-19T09:02:52.840Z,33.94
2018-08-19T09:05:20.427Z,34.33
2018-08-19T09:07:47.999Z,34.11
2018-08-19T09:10:15.579Z,33.86
2018-08-19T09:12:45.204Z,34.23
2018-08-19T09:15:12.822Z,34.14
2018-08-19T09:17:40.415Z,34.73
2018-08-19T09:20:09.618Z,34.79
2018-08-19T09:22:37.226Z,34.22
2018-08-19T09:25:05.674Z,34.79
2018-08-19T09:27:33.654Z,35.84
2018-08-19T09:30:01.223Z,35.69
2018-08-19T09:32:28.757Z,35.87
2018-08-19T09:34:56.351Z,35.56
2018-08-19T09:37:23.915Z,35.36
2018-08-19T09:39:51.500Z,35.93
2018-08-19T09:42:21.318Z,36.17
2018-08-19T09:44:48.919Z,36.21
2018-08-19T09:47:16.521Z,36.56
2018-08-19T09:49:45.062Z,36.41
2018-08-19T09:52:12.673Z,36.76
2018-08-19T09:54:40.302Z,36.73
2018-08-19T09:57:08.186Z,36.71
2018-08-19T09:59:36.107Z,36.71
2018-08-19T10:02:05.970Z,37.16
2018-08-19T10:04:33.818Z,37.65
2018-08-19T10:07:11.434Z,37.31
2018-08-19T10:09:39.154Z,37.99
2018-08-19T10:12:06.939Z,37.29
2018-08-19T10:14:34.613Z,36.48
2018-08-19T10:17:02.206Z,36.63
2018-08-19T10:19:29.755Z,36.64
2018-08-19T10:21:57.372Z,36.34
2018-08-19T10:24:27.570Z,36.37
2018-08-19T10:26:55.784Z,35.22
2018-08-19T10:29:23.438Z,34.23
2018-08-19T10:31:51.601Z,34.39
2018-08-19T10:34:23.882Z,34.64
2018-08-19T10:36:51.410Z,33.71
2018-08-19T10:39:18.989Z,33.76
2018-08-19T10:41:46.836Z,34.08
2018-08-19T10:44:14.402Z,34.24
2018-08-19T10:46:42.556Z,34.39
2018-08-19T10:49:10.650Z,34.74
2018-08-19T10:51:40.223Z,35.24
2018-08-19T10:54:07.834Z,35.22
2018-08-19T10:56:35.390Z,35.03
2018-08-19T10:59:03.047Z,35.72
2018-08-19T11:01:30.687Z,36.12
2018-08-19T11:03:58.626Z,36.06
2018-08-19T11:06:26.175Z,35.02
2018-08-19T11:08:54.905Z,35.36
2018-08-19T11:11:22.778Z,35.28
2018-08-19T11:13:50.356Z,34.74
2018-08-19T11:16:17.922Z,33.92
2018-08-19T11:18:46.684Z,33.84
2018-08-19T11:21:23.226Z,33.48
2018-08-19T11:23:50.851Z,33.65
2018-08-19T11:26:18.445Z,33.34
2018-08-19T11:28:50.436Z,33.48
2018-08-19T11:31:23.914Z,33.19
2018-08-19T11:33:52.067Z,33.38
2018-08-19T11:36:20.342Z,33.28
2018-08-19T11:38:48.739Z,32.91
2018-08-19T11:41:16.507Z,32.65
2018-08-19T11:43:45.185Z,32.31
2018-08-19T11:46:12.975Z,31.98
2018-08-19T11:48:41.178Z,31.91
2018-08-19T11:51:08.861Z,31.89
2018-08-19T11:53:36.506Z,31.52
2018-08-19T11:56:04.238Z,31.53
2018-08-19T11:58:37.470Z,31.55
2018-08-19T12:01:12.655Z,31.22
2018-08-19T12:03:57.123Z,31.71
2018-08-19T12:06:27.138Z,31.55
2018-08-19T12:08:56.000Z,31.31
2018-08-19T12:14:04.234Z,31.01
2018-08-19T12:16:35.473Z,30.30
2018-08-19T12:19:08.566Z,30.48
2018-08-19T12:21:42.751Z,30.36
2018-08-19T12:24:16.814Z,30.23
2018-08-19T12:26:44.385Z,30.52
2018-08-19T12:29:12.215Z,30.53
2018-08-19T12:31:39.793Z,30.80
2018-08-19T12:34:07.355Z,30.79
2018-08-19T12:36:34.911Z,30.65
2018-08-19T12:39:03.072Z,30.67
2018-08-19T12:41:31.723Z,30.67
2018-08-19T12:43:59.315Z,30.65
2018-08-19T12:46:27.005Z,30.68
2018-08-19T12:48:54.748Z,30.81
2018-08-19T12:51:22.391Z,31.00
2018-08-19T12:53:49.939Z,30.60
2018-08-19T12:56:17.506Z,30.56
2018-08-19T12:58:45.059Z,30.66
2018-08-19T13:01:12.611Z,30.87
2018-08-19T13:03:40.223Z,30.59
2018-08-19T13:06:08.435Z,30.86
2018-08-19T13:08:36.710Z,30.57
2018-08-19T13:11:05.125Z,30.68
2018-08-19T13:13:33.086Z,31.01
2018-08-19T13:16:00.691Z,31.09
2018-08-19T13:18:33.966Z,31.14
2018-08-19T13:21:07.593Z,31.17
2018-08-19T13:23:35.134Z,30.95
2018-08-19T13:26:02.753Z,30.42
2018-08-19T13:28:30.498Z,30.17
2018-08-19T13:30:58.006Z,30.23
2018-08-19T13:33:25.954Z,29.93
2018-08-19T13:35:53.599Z,30.12
2018-08-19T13:38:30.664Z,30.15
2018-08-19T13:40:58.564Z,29.93
2018-08-19T13:43:26.116Z,29.52
2018-08-19T13:45:53.995Z,29.38
2018-08-19T13:48:21.768Z,29.27
2018-08-19T13:50:49.324Z,29.44
2018-08-19T13:53:16.911Z,29.54
2018-08-19T13:55:44.498Z,29.32
2018-08-19T13:58:12.030Z,29.23
2018-08-19T14:00:39.601Z,28.97
2018-08-19T14:03:07.413Z,28.81
2018-08-19T14:05:34.989Z,28.91
2018-08-19T14:08:02.614Z,29.08
2018-08-19T14:10:30.169Z,29.17
2018-08-19T14:12:57.734Z,28.68
2018-08-19T14:15:25.311Z,28.60
2018-08-19T14:17:53.487Z,28.69
2018-08-19T14:20:21.092Z,28.45
2018-08-19T14:22:48.929Z,28.60
2018-08-19T14:25:16.475Z,28.66
2018-08-19T14:27:44.138Z,28.95
2018-08-19T14:30:12.141Z,28.71
2018-08-19T14:32:40.162Z,28.64
2018-08-19T14:35:08.053Z,28.50
2018-08-19T14:37:35.614Z,28.60
2018-08-19T14:40:03.944Z,28.61
2018-08-19T14:42:31.526Z,28.38
2018-08-19T14:44:59.498Z,28.54
2018-08-19T14:47:27.511Z,28.52
2018-08-19T14:49:55.861Z,28.52
2018-08-19T14:52:23.484Z,28.52
2018-08-19T14:54:51.065Z,28.50
2018-08-19T14:57:18.639Z,28.54
2018-08-19T14:59:46.227Z,28.60
2018-08-19T15:02:14.080Z,28.65
2018-08-19T15:04:42.208Z,28.72
2018-08-19T15:07:10.336Z,28.76
2018-08-19T15:09:38.931Z,28.63
2018-08-19T15:12:12.914Z,28.64
2018-08-19T15:14:40.520Z,28.55
2018-08-19T15:17:08.958Z,28.49
2018-08-19T15:19:45.873Z,28.53
2018-08-19T15:22:13.427Z,28.41
2018-08-19T15:24:41.005Z,28.27
2018-08-19T15:27:08.555Z,28.26
2018-08-19T15:29:39.714Z,28.33
2018-08-19T15:32:07.521Z,28.29
2018-08-19T15:34:35.040Z,28.26
2018-08-19T15:37:02.628Z,28.16
2018-08-19T15:39:30.482Z,28.22
2018-08-19T15:41:58.042Z,28.32
2018-08-19T15:44:25.614Z,28.27
2018-08-19T15:46:53.373Z,28.22
2018-08-19T15:49:21.545Z,28.18
2018-08-19T15:51:49.122Z,28.16
2018-08-19T15:54:16.989Z,28.19
2018-08-19T15:56:44.570Z,28.28
2018-08-19T15:59:12.119Z,28.15
2018-08-19T16:01:40.076Z,28.19
2018-08-19T16:04:28.111Z,28.21
2018-08-19T16:06:55.731Z,28.21
2018-08-19T16:09:24.609Z,28.17
2018-08-19T16:11:53.019Z,28.23
2018-08-19T16:14:22.279Z,28.20
2018-08-19T16:16:50.015Z,28.21
2018-08-19T16:19:17.582Z,28.04
2018-08-19T16:21:46.329Z,28.07
2018-08-19T16:24:13.906Z,27.98
2018-08-19T16:26:41.522Z,27.96
2018-08-19T16:29:09.127Z,27.71
2018-08-19T16:31:36.734Z,27.76
2018-08-19T16:34:04.512Z,27.67
2018-08-19T16:36:32.065Z,27.65
2018-08-19T16:38:59.722Z,27.67
2018-08-19T16:41:27.833Z,27.59
2018-08-19T16:43:55.575Z,27.61
2018-08-19T16:46:23.259Z,27.55
2018-08-19T16:48:50.950Z,27.52
2018-08-19T16:51:18.620Z,27.46
2018-08-19T16:53:46.490Z,27.43
2018-08-19T16:56:14.092Z,27.41
2018-08-19T16:58:41.876Z,27.26
2018-08-19T17:01:09.729Z,27.34
2018-08-19T17:03:38.085Z,27.37
2018-08-19T17:06:07.226Z,27.36
2018-08-19T17:08:34.843Z,27.42
2018-08-19T17:11:02.436Z,27.36
2018-08-19T17:13:30.043Z,27.36
2018-08-19T17:15:58.396Z,27.36
2018-08-19T17:18:25.938Z,27.33
2018-08-19T17:20:53.535Z,27.35
2018-08-19T17:23:22.319Z,27.26
2018-08-19T17:25:50.320Z,27.20
2018-08-19T17:28:21.800Z,27.26
2018-08-19T17:30:50.570Z,27.30
2018-08-19T17:33:19.224Z,27.24
2018-08-19T17:35:48.032Z,27.24
2018-08-19T17:38:16.841Z,27.19
2018-08-19T17:40:44.431Z,27.14
2018-08-19T17:43:11.948Z,27.25
2018-08-19T17:45:39.600Z,27.16
2018-08-19T17:48:07.371Z,27.12
2018-08-19T17:50:36.627Z,27.02
2018-08-19T17:53:04.261Z,27.01
2018-08-19T17:55:31.879Z,26.95
2018-08-19T17:57:59.825Z,26.90
2018-08-19T18:00:27.938Z,26.83
2018-08-19T18:02:55.491Z,26.78
2018-08-19T18:05:23.104Z,26.77
2018-08-19T18:07:52.758Z,26.75
2018-08-19T18:10:20.345Z,26.76
2018-08-19T18:12:48.291Z,26.70
2018-08-19T18:15:15.909Z,26.72
2018-08-19T18:17:56.568Z,26.66
2018-08-19T18:20:24.907Z,26.70
2018-08-19T18:22:53.764Z,26.63
2018-08-19T18:25:21.401Z,26.61
2018-08-19T18:27:48.998Z,26.39
2018-08-19T18:30:23.418Z,26.34
2018-08-19T18:32:51.314Z,26.26
2018-08-19T18:35:19.801Z,26.10
2018-08-19T18:37:47.426Z,25.96
2018-08-19T18:40:22.456Z,25.96
2018-08-19T18:42:50.444Z,25.79
2018-08-19T18:45:18.023Z,25.77
2018-08-19T18:47:51.570Z,25.74
2018-08-19T18:50:21.800Z,25.57
2018-08-19T18:52:49.373Z,25.43
2018-08-19T18:55:17.027Z,25.50
2018-08-19T18:57:55.683Z,25.38
2018-08-19T19:00:24.772Z,25.32
2018-08-19T19:02:57.536Z,25.19
2018-08-19T19:05:30.954Z,25.13
2018-08-19T19:08:08.261Z,25.07
2018-08-19T19:10:36.586Z,25.16
2018-08-19T19:13:04.943Z,25.08
2018-08-19T19:15:37.068Z,25.11
2018-08-19T19:18:06.317Z,25.03
2018-08-19T19:20:33.949Z,24.97
2018-08-19T19:23:02.462Z,24.93
2018-08-19T19:25:37.851Z,24.79
2018-08-19T19:28:05.873Z,24.66
2018-08-19T19:30:33.656Z,24.63
2018-08-19T19:33:09.633Z,24.74
2018-08-19T19:35:37.475Z,24.50
2018-08-19T19:38:05.731Z,24.47
2018-08-19T19:40:33.388Z,24.55
2018-08-19T19:43:01.258Z,24.43
2018-08-19T19:45:30.080Z,24.36
2018-08-19T19:47:57.721Z,24.29
2018-08-19T19:50:25.315Z,24.16
2018-08-19T19:52:57.877Z,24.10
2018-08-19T19:55:26.028Z,24.03
2018-08-19T19:57:53.790Z,24.07
2018-08-19T20:00:21.338Z,24.35
2018-08-19T20:02:48.928Z,24.19
2018-08-19T20:05:23.107Z,24.14
2018-08-19T20:07:51.917Z,24.17
2018-08-19T20:10:25.823Z,23.94
2018-08-19T20:12:53.506Z,23.70
2018-08-19T20:15:21.073Z,23.39
2018-08-19T20:17:48.682Z,23.29
2018-08-19T20:20:16.227Z,23.43
2018-08-19T20:22:44.061Z,23.66
2018-08-19T20:25:12.606Z,23.38
2018-08-19T20:27:40.230Z,23.29
2018-08-19T20:30:07.816Z,23.14
2018-08-19T20:32:35.362Z,22.99
2018-08-19T20:35:03.270Z,22.83
2018-08-19T20:37:35.671Z,22.95
2018-08-19T20:40:03.792Z,22.96
2018-08-19T20:42:31.328Z,22.82
2018-08-19T20:44:58.859Z,23.05
2018-08-19T20:47:26.446Z,22.87
2018-08-19T20:49:54.002Z,22.65
2018-08-19T20:52:54.746Z,22.80
2018-08-19T20:55:22.322Z,22.61
2018-08-19T20:57:49.883Z,22.58
2018-08-19T21:00:17.490Z,22.57
2018-08-19T21:02:45.035Z,22.51
2018-08-19T21:05:12.598Z,22.46
2018-08-19T21:07:41.588Z,22.48
2018-08-19T21:10:09.122Z,22.47
2018-08-19T21:12:36.663Z,22.45
2018-08-19T21:15:04.328Z,22.37
2018-08-19T21:17:32.223Z,22.39
2018-08-19T21:19:59.894Z,22.44
2018-08-19T21:22:27.512Z,22.42
2018-08-19T21:24:55.055Z,22.41
2018-08-19T21:27:23.194Z,22.32
2018-08-19T21:29:50.830Z,22.39
2018-08-19T21:32:18.573Z,22.27
2018-08-19T21:34:46.184Z,22.14
2018-08-19T21:37:15.578Z,22.13
2018-08-19T21:39:43.126Z,21.95
2018-08-19T21:42:10.679Z,21.76
2018-08-19T21:44:38.222Z,21.76
2018-08-19T21:47:05.794Z,21.84
2018-08-19T21:49:33.382Z,21.83
2018-08-19T21:52:00.991Z,21.77
2018-08-19T21:54:28.534Z,21.92
2018-08-19T21:56:56.078Z,21.89
2018-08-19T21:59:24.354Z,21.49
2018-08-19T22:01:59.658Z,21.37
2018-08-19T22:04:27.879Z,21.37
2018-08-19T22:06:55.492Z,21.41
2018-08-19T22:09:28.674Z,21.37
2018-08-19T22:11:57.526Z,21.30
2018-08-19T22:14:25.416Z,21.40
2018-08-19T22:16:58.679Z,21.25
2018-08-19T22:19:26.326Z,21.43
2018-08-19T22:21:53.839Z,21.41
2018-08-19T22:24:21.402Z,21.08
2018-08-19T22:26:48.949Z,21.01
2018-08-19T22:29:19.437Z,20.95
2018-08-19T22:31:48.470Z,20.76
2018-08-19T22:34:16.026Z,20.80
2018-08-19T22:36:43.580Z,21.03
2018-08-19T22:39:11.427Z,20.85
2018-08-19T22:41:38.967Z,20.76
2018-08-19T22:44:06.497Z,20.80
2018-08-19T22:46:34.175Z,20.83
2018-08-19T22:49:01.694Z,20.86
2018-08-19T22:51:29.814Z,20.71
2018-08-19T22:53:57.380Z,20.46
2018-08-19T22:56:24.904Z,20.31
2018-08-19T22:58:52.465Z,20.28
2018-08-19T23:01:20.164Z,20.29
2018-08-19T23:03:48.512Z,20.29
2018-08-19T23:06:16.086Z,20.06
2018-08-19T23:08:43.619Z,20.09
2018-08-19T23:11:11.154Z,20.09
2018-08-19T23:13:44.269Z,19.99
2018-08-19T23:16:12.622Z,19.99
2018-08-19T23:18:40.961Z,20.09
2018-08-19T23:21:08.823Z,19.87
2018-08-19T23:23:36.398Z,19.82
2018-08-19T23:26:04.355Z,19.66
2018-08-19T23:28:31.878Z,19.63
2018-08-19T23:30:59.460Z,19.66
2018-08-19T23:33:26.995Z,19.80
2018-08-19T23:35:54.538Z,19.65
2018-08-19T23:38:22.120Z,19.83
2018-08-19T23:40:49.690Z,19.81
2018-08-19T23:43:17.563Z,19.71
2018-08-19T23:45:45.143Z,19.53
2018-08-19T23:48:12.678Z,19.43
2018-08-19T23:50:40.302Z,19.43
2018-08-19T23:53:09.226Z,19.48
2018-08-19T23:55:37.334Z,19.49
2018-08-19T23:58:04.853Z,19.57
